Tuskahoma, OK (74574)

2:44 PM CDT on September 04, 2015 (GMT -0500)
Cricket Woods | | Change Station
CLOSE
Current Station
Personal Weather Station
Location: Wister, OK
Elevation: 682 ft
Nearby Weather Stations

Elev 682 ft 34.86 °N, 94.91 °W | Updated 7 minutes ago

Partly Cloudy
Partly Cloudy
97.9 °F
Feels Like 105 °F
N
2.2
Wind Variable Wind from ESE

Today
High -- | Low -- °F
--% Chance of Precip.
Yesterday
High -- | Low -- °F
Precip. -- in
6:56 AM 7:43 PM
Waning Gibbous, 56% visible
Pressure 29.95 in
Visibility 10.0 miles
Clouds Few 8000 ft
Heat Index 105 °F
Dew Point 69 °F
Humidity 40%
Rainfall 0.00 in
Snow Depth Not available.
UV 9 out of 12
Pollen 10.70 out of 12
Air Quality Not available.
Flu Activity Not available.
METAR KMLC 041853Z AUTO VRB06KT 10SM FEW080 33/21 A2998 RMK AO2 SLP140 T03330211
Pressure 29.95 in
Visibility 10.0 miles
Clouds Few 8000 ft
Heat Index 105 °F
Dew Point 69 °F
Humidity 40%
Rainfall 0.00 in
Snow Depth Not available.
UV 9 out of 12
Pollen 10.70 out of 12
Air Quality Not available.
Flu Activity Not available.
METAR KMLC 041853Z AUTO VRB06KT 10SM FEW080 33/21 A2998 RMK AO2 SLP140 T03330211

10-Day Weather Forecast

×

Almanac

Astronomy

Sep. 04, 2015 Rise Set
Actual Time
Civil Twilight
Nautical Twilight
Astronomical Twilight
Moon
Length of Visible Light
Length of Day
Tomorrow will be .
, % of the Moon is Illuminated

Today's Extremes

State Highs State Lows

Community

WunderPhotos

Upload Photos

1,852,272 photos uploaded!

WunderBlogs® & News

Nearby

Air Quality

  Air Quality AQ Index Pollutant
Not available.

Snow Depth

Station Depth Elevation

Earthquake Activity

City Distance Mag. Time & Date
Minimum magnitude displayed is 2.5.

Coastal Water Temperatures

Place Temperature

Stations

Nearby Weather Stations

Station Location Temp. Windchill Dew Point Humidity Wind Precip. Elev Updated Type